sensor_id;sensor_type;location;lat;lon;timestamp;P1;P2;P0
55473;PMS5003;65220;52.214;0.116;2023-06-24T00:01:48;7;5;
55473;PMS5003;65220;52.214;0.116;2023-06-24T00:04:13;8;6;
55473;PMS5003;65220;52.214;0.116;2023-06-24T00:06:39;6;6;
55473;PMS5003;65220;52.214;0.116;2023-06-24T00:09:04;6;6;
55473;PMS5003;65220;52.214;0.116;2023-06-24T00:11:30;7;7;
55473;PMS5003;65220;52.214;0.116;2023-06-24T00:13:55;7;6;
55473;PMS5003;65220;52.214;0.116;2023-06-24T00:16:20;5;3;
55473;PMS5003;65220;52.214;0.116;2023-06-24T00:18:46;8;7;
55473;PMS5003;65220;52.214;0.116;2023-06-24T00:21:11;7;7;
55473;PMS5003;65220;52.214;0.116;2023-06-24T00:23:36;5;5;
55473;PMS5003;65220;52.214;0.116;2023-06-24T00:26:01;9;7;
55473;PMS5003;65220;52.214;0.116;2023-06-24T00:28:26;5;4;
55473;PMS5003;65220;52.214;0.116;2023-06-24T00:30:51;5;5;
55473;PMS5003;65220;52.214;0.116;2023-06-24T00:33:17;8;8;
55473;PMS5003;65220;52.214;0.116;2023-06-24T00:35:42;10;6;
55473;PMS5003;65220;52.214;0.116;2023-06-24T00:38:07;6;6;
55473;PMS5003;65220;52.214;0.116;2023-06-24T00:40:33;8;8;
55473;PMS5003;65220;52.214;0.116;2023-06-24T00:42:58;6;6;
55473;PMS5003;65220;52.214;0.116;2023-06-24T00:45:23;5;5;
55473;PMS5003;65220;52.214;0.116;2023-06-24T00:47:48;6;6;
55473;PMS5003;65220;52.214;0.116;2023-06-24T00:50:14;6;6;
55473;PMS5003;65220;52.214;0.116;2023-06-24T00:52:39;8;7;
55473;PMS5003;65220;52.214;0.116;2023-06-24T00:55:04;4;4;
55473;PMS5003;65220;52.214;0.116;2023-06-24T00:57:29;7;7;
55473;PMS5003;65220;52.214;0.116;2023-06-24T00:59:54;7;6;
55473;PMS5003;65220;52.214;0.116;2023-06-24T01:02:19;6;6;
55473;PMS5003;65220;52.214;0.116;2023-06-24T01:04:44;10;7;
55473;PMS5003;65220;52.214;0.116;2023-06-24T01:07:10;9;7;
55473;PMS5003;65220;52.214;0.116;2023-06-24T01:09:35;6;6;
55473;PMS5003;65220;52.214;0.116;2023-06-24T01:12:00;11;10;
55473;PMS5003;65220;52.214;0.116;2023-06-24T01:14:25;7;7;
55473;PMS5003;65220;52.214;0.116;2023-06-24T01:16:53;8;7;
55473;PMS5003;65220;52.214;0.116;2023-06-24T01:19:22;6;6;
55473;PMS5003;65220;52.214;0.116;2023-06-24T01:21:42;5;5;
55473;PMS5003;65220;52.214;0.116;2023-06-24T01:24:15;8;8;
55473;PMS5003;65220;52.214;0.116;2023-06-24T01:26:38;6;6;
55473;PMS5003;65220;52.214;0.116;2023-06-24T01:28:58;6;6;
55473;PMS5003;65220;52.214;0.116;2023-06-24T01:31:50;8;7;
55473;PMS5003;65220;52.214;0.116;2023-06-24T01:33:44;7;7;
55473;PMS5003;65220;52.214;0.116;2023-06-24T01:36:08;8;6;
55473;PMS5003;65220;52.214;0.116;2023-06-24T01:38:35;5;5;
55473;PMS5003;65220;52.214;0.116;2023-06-24T01:40:58;7;6;
55473;PMS5003;65220;52.214;0.116;2023-06-24T01:43:24;5;5;
55473;PMS5003;65220;52.214;0.116;2023-06-24T01:45:50;7;7;
55473;PMS5003;65220;52.214;0.116;2023-06-24T01:48:15;8;7;
55473;PMS5003;65220;52.214;0.116;2023-06-24T01:50:39;7;6;
55473;PMS5003;65220;52.214;0.116;2023-06-24T01:53:05;8;8;
55473;PMS5003;65220;52.214;0.116;2023-06-24T01:55:30;7;6;
55473;PMS5003;65220;52.214;0.116;2023-06-24T01:57:55;7;5;
55473;PMS5003;65220;52.214;0.116;2023-06-24T02:00:21;4;4;
55473;PMS5003;65220;52.214;0.116;2023-06-24T02:02:46;7;7;
55473;PMS5003;65220;52.214;0.116;2023-06-24T02:05:11;6;6;
55473;PMS5003;65220;52.214;0.116;2023-06-24T02:07:36;7;6;
55473;PMS5003;65220;52.214;0.116;2023-06-24T02:10:02;7;7;
55473;PMS5003;65220;52.214;0.116;2023-06-24T02:12:27;6;6;
55473;PMS5003;65220;52.214;0.116;2023-06-24T02:14:52;6;6;
55473;PMS5003;65220;52.214;0.116;2023-06-24T02:17:17;8;7;
55473;PMS5003;65220;52.214;0.116;2023-06-24T02:19:42;7;6;
55473;PMS5003;65220;52.214;0.116;2023-06-24T02:22:08;5;5;
55473;PMS5003;65220;52.214;0.116;2023-06-24T02:24:33;7;7;
55473;PMS5003;65220;52.214;0.116;2023-06-24T02:26:58;5;5;
55473;PMS5003;65220;52.214;0.116;2023-06-24T02:29:24;7;6;
55473;PMS5003;65220;52.214;0.116;2023-06-24T02:31:48;9;8;
55473;PMS5003;65220;52.214;0.116;2023-06-24T02:34:13;10;6;
55473;PMS5003;65220;52.214;0.116;2023-06-24T02:36:39;8;8;
55473;PMS5003;65220;52.214;0.116;2023-06-24T02:39:04;7;6;
55473;PMS5003;65220;52.214;0.116;2023-06-24T02:41:29;6;6;
55473;PMS5003;65220;52.214;0.116;2023-06-24T02:43:54;6;6;
55473;PMS5003;65220;52.214;0.116;2023-06-24T02:46:19;6;6;
55473;PMS5003;65220;52.214;0.116;2023-06-24T02:48:45;5;5;
55473;PMS5003;65220;52.214;0.116;2023-06-24T02:51:10;3;3;
55473;PMS5003;65220;52.214;0.116;2023-06-24T02:53:35;7;7;
55473;PMS5003;65220;52.214;0.116;2023-06-24T02:56:01;10;9;
55473;PMS5003;65220;52.214;0.116;2023-06-24T02:58:26;5;4;
55473;PMS5003;65220;52.214;0.116;2023-06-24T03:00:51;7;7;
55473;PMS5003;65220;52.214;0.116;2023-06-24T03:03:16;5;5;
55473;PMS5003;65220;52.214;0.116;2023-06-24T03:05:41;7;5;
55473;PMS5003;65220;52.214;0.116;2023-06-24T03:08:06;6;6;
55473;PMS5003;65220;52.214;0.116;2023-06-24T03:10:31;7;5;
55473;PMS5003;65220;52.214;0.116;2023-06-24T03:12:57;6;6;
55473;PMS5003;65220;52.214;0.116;2023-06-24T03:15:22;8;7;
55473;PMS5003;65220;52.214;0.116;2023-06-24T03:17:47;7;7;
55473;PMS5003;65220;52.214;0.116;2023-06-24T03:20:12;6;5;
55473;PMS5003;65220;52.214;0.116;2023-06-24T03:22:37;4;4;
55473;PMS5003;65220;52.214;0.116;2023-06-24T03:25:03;8;8;
55473;PMS5003;65220;52.214;0.116;2023-06-24T03:27:28;7;7;
55473;PMS5003;65220;52.214;0.116;2023-06-24T03:29:53;6;6;
55473;PMS5003;65220;52.214;0.116;2023-06-24T03:32:18;6;6;
55473;PMS5003;65220;52.214;0.116;2023-06-24T03:34:43;9;8;
55473;PMS5003;65220;52.214;0.116;2023-06-24T03:37:08;6;6;
55473;PMS5003;65220;52.214;0.116;2023-06-24T03:39:34;9;7;
55473;PMS5003;65220;52.214;0.116;2023-06-24T03:41:59;5;5;
55473;PMS5003;65220;52.214;0.116;2023-06-24T03:44:24;6;6;
55473;PMS5003;65220;52.214;0.116;2023-06-24T03:46:49;9;7;
55473;PMS5003;65220;52.214;0.116;2023-06-24T03:49:14;5;5;
55473;PMS5003;65220;52.214;0.116;2023-06-24T03:51:39;8;7;
55473;PMS5003;65220;52.214;0.116;2023-06-24T03:54:05;6;6;
55473;PMS5003;65220;52.214;0.116;2023-06-24T03:56:30;7;7;
55473;PMS5003;65220;52.214;0.116;2023-06-24T03:58:56;8;6;
55473;PMS5003;65220;52.214;0.116;2023-06-24T04:01:21;7;6;
55473;PMS5003;65220;52.214;0.116;2023-06-24T04:03:46;7;7;
55473;PMS5003;65220;52.214;0.116;2023-06-24T04:06:11;5;5;
55473;PMS5003;65220;52.214;0.116;2023-06-24T04:08:37;8;6;
55473;PMS5003;65220;52.214;0.116;2023-06-24T04:11:02;6;6;
55473;PMS5003;65220;52.214;0.116;2023-06-24T04:13:27;7;7;
55473;PMS5003;65220;52.214;0.116;2023-06-24T04:15:53;11;9;
55473;PMS5003;65220;52.214;0.116;2023-06-24T04:18:18;8;8;
55473;PMS5003;65220;52.214;0.116;2023-06-24T04:20:43;8;8;
55473;PMS5003;65220;52.214;0.116;2023-06-24T04:23:08;8;7;
55473;PMS5003;65220;52.214;0.116;2023-06-24T04:25:33;9;9;
55473;PMS5003;65220;52.214;0.116;2023-06-24T04:27:58;5;5;
55473;PMS5003;65220;52.214;0.116;2023-06-24T04:30:24;8;8;
55473;PMS5003;65220;52.214;0.116;2023-06-24T04:32:49;7;6;
55473;PMS5003;65220;52.214;0.116;2023-06-24T04:35:14;7;7;
55473;PMS5003;65220;52.214;0.116;2023-06-24T04:37:39;9;9;
55473;PMS5003;65220;52.214;0.116;2023-06-24T04:40:05;7;7;
55473;PMS5003;65220;52.214;0.116;2023-06-24T04:42:29;8;6;
55473;PMS5003;65220;52.214;0.116;2023-06-24T04:44:55;7;6;
55473;PMS5003;65220;52.214;0.116;2023-06-24T04:47:20;10;7;
55473;PMS5003;65220;52.214;0.116;2023-06-24T04:49:45;6;5;
55473;PMS5003;65220;52.214;0.116;2023-06-24T04:52:11;7;7;
55473;PMS5003;65220;52.214;0.116;2023-06-24T04:54:36;8;7;
55473;PMS5003;65220;52.214;0.116;2023-06-24T04:57:02;8;8;
55473;PMS5003;65220;52.214;0.116;2023-06-24T04:59:27;5;5;
55473;PMS5003;65220;52.214;0.116;2023-06-24T05:01:52;6;6;
55473;PMS5003;65220;52.214;0.116;2023-06-24T05:04:17;7;7;
55473;PMS5003;65220;52.214;0.116;2023-06-24T05:06:43;6;6;
55473;PMS5003;65220;52.214;0.116;2023-06-24T05:09:08;5;5;
55473;PMS5003;65220;52.214;0.116;2023-06-24T05:11:33;9;9;
55473;PMS5003;65220;52.214;0.116;2023-06-24T05:13:59;6;6;
55473;PMS5003;65220;52.214;0.116;2023-06-24T05:16:24;12;7;
55473;PMS5003;65220;52.214;0.116;2023-06-24T05:18:49;5;5;
55473;PMS5003;65220;52.214;0.116;2023-06-24T05:21:14;7;6;
55473;PMS5003;65220;52.214;0.116;2023-06-24T05:23:39;9;7;
55473;PMS5003;65220;52.214;0.116;2023-06-24T05:26:05;8;7;
55473;PMS5003;65220;52.214;0.116;2023-06-24T05:28:30;8;7;
55473;PMS5003;65220;52.214;0.116;2023-06-24T05:30:55;5;5;
55473;PMS5003;65220;52.214;0.116;2023-06-24T05:33:20;7;7;
55473;PMS5003;65220;52.214;0.116;2023-06-24T05:35:46;9;7;
55473;PMS5003;65220;52.214;0.116;2023-06-24T05:38:11;6;5;
55473;PMS5003;65220;52.214;0.116;2023-06-24T05:40:36;7;7;
55473;PMS5003;65220;52.214;0.116;2023-06-24T05:43:02;5;5;
55473;PMS5003;65220;52.214;0.116;2023-06-24T05:45:27;8;8;
55473;PMS5003;65220;52.214;0.116;2023-06-24T05:47:52;6;5;
55473;PMS5003;65220;52.214;0.116;2023-06-24T05:50:17;8;8;
55473;PMS5003;65220;52.214;0.116;2023-06-24T05:52:42;7;7;
55473;PMS5003;65220;52.214;0.116;2023-06-24T05:55:08;6;6;
55473;PMS5003;65220;52.214;0.116;2023-06-24T05:57:33;8;7;
55473;PMS5003;65220;52.214;0.116;2023-06-24T05:59:58;10;7;
55473;PMS5003;65220;52.214;0.116;2023-06-24T06:02:23;7;7;
55473;PMS5003;65220;52.214;0.116;2023-06-24T06:04:49;6;5;
55473;PMS5003;65220;52.214;0.116;2023-06-24T06:07:13;8;7;
55473;PMS5003;65220;52.214;0.116;2023-06-24T06:09:39;8;8;
55473;PMS5003;65220;52.214;0.116;2023-06-24T06:12:05;7;7;
55473;PMS5003;65220;52.214;0.116;2023-06-24T06:14:29;7;7;
55473;PMS5003;65220;52.214;0.116;2023-06-24T06:16:55;8;7;
55473;PMS5003;65220;52.214;0.116;2023-06-24T06:19:20;7;6;
55473;PMS5003;65220;52.214;0.116;2023-06-24T06:21:45;10;10;
55473;PMS5003;65220;52.214;0.116;2023-06-24T06:24:10;9;9;
55473;PMS5003;65220;52.214;0.116;2023-06-24T06:26:40;5;5;
55473;PMS5003;65220;52.214;0.116;2023-06-24T06:29:00;8;8;
55473;PMS5003;65220;52.214;0.116;2023-06-24T06:31:26;6;6;
55473;PMS5003;65220;52.214;0.116;2023-06-24T06:33:51;6;6;
55473;PMS5003;65220;52.214;0.116;2023-06-24T06:36:16;6;6;
55473;PMS5003;65220;52.214;0.116;2023-06-24T06:38:41;8;6;
55473;PMS5003;65220;52.214;0.116;2023-06-24T06:41:06;7;6;
55473;PMS5003;65220;52.214;0.116;2023-06-24T06:43:32;6;5;
55473;PMS5003;65220;52.214;0.116;2023-06-24T06:45:57;8;8;
55473;PMS5003;65220;52.214;0.116;2023-06-24T06:48:22;10;10;
55473;PMS5003;65220;52.214;0.116;2023-06-24T06:50:47;9;8;
55473;PMS5003;65220;52.214;0.116;2023-06-24T06:53:13;3;3;
55473;PMS5003;65220;52.214;0.116;2023-06-24T06:55:38;7;6;
55473;PMS5003;65220;52.214;0.116;2023-06-24T06:58:04;7;7;
55473;PMS5003;65220;52.214;0.116;2023-06-24T07:00:29;6;6;
55473;PMS5003;65220;52.214;0.116;2023-06-24T07:02:54;8;8;
55473;PMS5003;65220;52.214;0.116;2023-06-24T07:05:20;8;6;
55473;PMS5003;65220;52.214;0.116;2023-06-24T07:07:46;7;7;
55473;PMS5003;65220;52.214;0.116;2023-06-24T07:10:10;7;7;
55473;PMS5003;65220;52.214;0.116;2023-06-24T07:12:35;7;7;
55473;PMS5003;65220;52.214;0.116;2023-06-24T07:15:00;7;6;
55473;PMS5003;65220;52.214;0.116;2023-06-24T07:17:25;7;6;
55473;PMS5003;65220;52.214;0.116;2023-06-24T07:19:51;7;7;
55473;PMS5003;65220;52.214;0.116;2023-06-24T07:22:16;6;6;
55473;PMS5003;65220;52.214;0.116;2023-06-24T07:24:41;8;7;
55473;PMS5003;65220;52.214;0.116;2023-06-24T07:27:06;7;7;
55473;PMS5003;65220;52.214;0.116;2023-06-24T07:29:31;10;10;
55473;PMS5003;65220;52.214;0.116;2023-06-24T07:31:57;6;6;
55473;PMS5003;65220;52.214;0.116;2023-06-24T07:34:22;7;7;
55473;PMS5003;65220;52.214;0.116;2023-06-24T07:36:47;7;7;
55473;PMS5003;65220;52.214;0.116;2023-06-24T07:39:12;6;6;
55473;PMS5003;65220;52.214;0.116;2023-06-24T07:41:37;6;6;
55473;PMS5003;65220;52.214;0.116;2023-06-24T07:44:02;6;5;
55473;PMS5003;65220;52.214;0.116;2023-06-24T07:46:28;8;8;
55473;PMS5003;65220;52.214;0.116;2023-06-24T07:48:53;8;7;
55473;PMS5003;65220;52.214;0.116;2023-06-24T07:51:18;6;6;
55473;PMS5003;65220;52.214;0.116;2023-06-24T07:53:43;6;6;
55473;PMS5003;65220;52.214;0.116;2023-06-24T07:56:08;6;6;
55473;PMS5003;65220;52.214;0.116;2023-06-24T07:58:34;7;7;
55473;PMS5003;65220;52.214;0.116;2023-06-24T08:00:59;6;6;
55473;PMS5003;65220;52.214;0.116;2023-06-24T08:03:24;7;6;
55473;PMS5003;65220;52.214;0.116;2023-06-24T08:05:49;7;6;
55473;PMS5003;65220;52.214;0.116;2023-06-24T08:08:15;9;6;
55473;PMS5003;65220;52.214;0.116;2023-06-24T08:10:40;7;7;
55473;PMS5003;65220;52.214;0.116;2023-06-24T08:13:05;8;6;
55473;PMS5003;65220;52.214;0.116;2023-06-24T08:15:30;8;5;
55473;PMS5003;65220;52.214;0.116;2023-06-24T08:17:55;5;5;
55473;PMS5003;65220;52.214;0.116;2023-06-24T08:20:21;7;7;
55473;PMS5003;65220;52.214;0.116;2023-06-24T08:22:46;8;7;
55473;PMS5003;65220;52.214;0.116;2023-06-24T08:25:11;8;8;
55473;PMS5003;65220;52.214;0.116;2023-06-24T08:27:36;5;5;
55473;PMS5003;65220;52.214;0.116;2023-06-24T08:30:01;8;8;
55473;PMS5003;65220;52.214;0.116;2023-06-24T08:32:27;7;6;
55473;PMS5003;65220;52.214;0.116;2023-06-24T08:34:51;7;7;
55473;PMS5003;65220;52.214;0.116;2023-06-24T08:37:17;8;5;
55473;PMS5003;65220;52.214;0.116;2023-06-24T08:39:42;7;6;
55473;PMS5003;65220;52.214;0.116;2023-06-24T08:42:08;8;7;
55473;PMS5003;65220;52.214;0.116;2023-06-24T08:44:33;5;3;
55473;PMS5003;65220;52.214;0.116;2023-06-24T08:46:58;11;10;
55473;PMS5003;65220;52.214;0.116;2023-06-24T08:49:25;7;5;
55473;PMS5003;65220;52.214;0.116;2023-06-24T08:51:49;8;7;
55473;PMS5003;65220;52.214;0.116;2023-06-24T08:54:14;9;6;
55473;PMS5003;65220;52.214;0.116;2023-06-24T08:56:39;10;8;
55473;PMS5003;65220;52.214;0.116;2023-06-24T08:59:05;8;6;
55473;PMS5003;65220;52.214;0.116;2023-06-24T09:01:30;8;6;
55473;PMS5003;65220;52.214;0.116;2023-06-24T09:03:55;8;5;
55473;PMS5003;65220;52.214;0.116;2023-06-24T09:06:20;4;4;
55473;PMS5003;65220;52.214;0.116;2023-06-24T09:08:52;7;7;
55473;PMS5003;65220;52.214;0.116;2023-06-24T09:11:11;10;9;
55473;PMS5003;65220;52.214;0.116;2023-06-24T09:13:36;7;7;
55473;PMS5003;65220;52.214;0.116;2023-06-24T09:16:08;7;7;
55473;PMS5003;65220;52.214;0.116;2023-06-24T09:18:30;7;7;
55473;PMS5003;65220;52.214;0.116;2023-06-24T09:20:51;5;5;
55473;PMS5003;65220;52.214;0.116;2023-06-24T09:23:16;11;6;
55473;PMS5003;65220;52.214;0.116;2023-06-24T09:25:42;6;6;
55473;PMS5003;65220;52.214;0.116;2023-06-24T09:28:07;6;5;
55473;PMS5003;65220;52.214;0.116;2023-06-24T09:30:32;6;5;
55473;PMS5003;65220;52.214;0.116;2023-06-24T09:32:57;5;5;
55473;PMS5003;65220;52.214;0.116;2023-06-24T09:35:23;7;7;
55473;PMS5003;65220;52.214;0.116;2023-06-24T09:37:49;8;8;
55473;PMS5003;65220;52.214;0.116;2023-06-24T09:40:13;7;5;
55473;PMS5003;65220;52.214;0.116;2023-06-24T09:42:40;6;5;
55473;PMS5003;65220;52.214;0.116;2023-06-24T09:45:04;5;5;
55473;PMS5003;65220;52.214;0.116;2023-06-24T09:47:28;7;5;
55473;PMS5003;65220;52.214;0.116;2023-06-24T09:49:53;6;5;
55473;PMS5003;65220;52.214;0.116;2023-06-24T09:52:18;8;6;
55473;PMS5003;65220;52.214;0.116;2023-06-24T09:54:44;5;5;
55473;PMS5003;65220;52.214;0.116;2023-06-24T09:57:09;13;12;
55473;PMS5003;65220;52.214;0.116;2023-06-24T09:59:35;30;24;
55473;PMS5003;65220;52.214;0.116;2023-06-24T10:02:00;27;22;
55473;PMS5003;65220;52.214;0.116;2023-06-24T10:04:25;26;23;
55473;PMS5003;65220;52.214;0.116;2023-06-24T10:06:51;23;23;
55473;PMS5003;65220;52.214;0.116;2023-06-24T10:09:17;21;20;
55473;PMS5003;65220;52.214;0.116;2023-06-24T10:11:42;22;21;
55473;PMS5003;65220;52.214;0.116;2023-06-24T10:14:08;29;25;
55473;PMS5003;65220;52.214;0.116;2023-06-24T10:16:33;25;20;
55473;PMS5003;65220;52.214;0.116;2023-06-24T10:18:59;25;22;
55473;PMS5003;65220;52.214;0.116;2023-06-24T10:21:24;22;18;
55473;PMS5003;65220;52.214;0.116;2023-06-24T10:23:51;21;19;
55473;PMS5003;65220;52.214;0.116;2023-06-24T10:26:21;21;18;
55473;PMS5003;65220;52.214;0.116;2023-06-24T10:29:13;22;17;
55473;PMS5003;65220;52.214;0.116;2023-06-24T10:31:06;18;15;
55473;PMS5003;65220;52.214;0.116;2023-06-24T10:33:31;18;17;
55473;PMS5003;65220;52.214;0.116;2023-06-24T10:35:58;21;16;
55473;PMS5003;65220;52.214;0.116;2023-06-24T10:38:23;16;13;
55473;PMS5003;65220;52.214;0.116;2023-06-24T10:40:48;18;17;
55473;PMS5003;65220;52.214;0.116;2023-06-24T10:43:30;22;15;
55473;PMS5003;65220;52.214;0.116;2023-06-24T10:45:40;18;15;
55473;PMS5003;65220;52.214;0.116;2023-06-24T10:48:05;21;19;
55473;PMS5003;65220;52.214;0.116;2023-06-24T10:50:31;17;13;
55473;PMS5003;65220;52.214;0.116;2023-06-24T10:52:56;18;15;
55473;PMS5003;65220;52.214;0.116;2023-06-24T10:55:22;14;14;
55473;PMS5003;65220;52.214;0.116;2023-06-24T10:57:47;26;18;
55473;PMS5003;65220;52.214;0.116;2023-06-24T11:00:13;13;12;
55473;PMS5003;65220;52.214;0.116;2023-06-24T14:00:09;4;4;
55473;PMS5003;65220;52.214;0.116;2023-06-24T14:02:34;8;7;
55473;PMS5003;65220;52.214;0.116;2023-06-24T14:04:59;6;5;
55473;PMS5003;65220;52.214;0.116;2023-06-24T14:07:24;5;5;
55473;PMS5003;65220;52.214;0.116;2023-06-24T14:09:49;3;3;
55473;PMS5003;65220;52.214;0.116;2023-06-24T14:12:15;6;4;
55473;PMS5003;65220;52.214;0.116;2023-06-24T14:14:40;6;5;
55473;PMS5003;65220;52.214;0.116;2023-06-24T14:17:05;5;4;
55473;PMS5003;65220;52.214;0.116;2023-06-24T14:19:30;5;4;
55473;PMS5003;65220;52.214;0.116;2023-06-24T14:21:55;3;3;
55473;PMS5003;65220;52.214;0.116;2023-06-24T14:24:20;6;6;
55473;PMS5003;65220;52.214;0.116;2023-06-24T14:26:45;4;4;
55473;PMS5003;65220;52.214;0.116;2023-06-24T14:29:11;4;4;
55473;PMS5003;65220;52.214;0.116;2023-06-24T14:31:36;3;3;
55473;PMS5003;65220;52.214;0.116;2023-06-24T14:34:01;5;5;
55473;PMS5003;65220;52.214;0.116;2023-06-24T14:36:26;7;6;
55473;PMS5003;65220;52.214;0.116;2023-06-24T14:38:51;4;4;
55473;PMS5003;65220;52.214;0.116;2023-06-24T14:41:16;4;4;
55473;PMS5003;65220;52.214;0.116;2023-06-24T14:43:41;6;6;
55473;PMS5003;65220;52.214;0.116;2023-06-24T14:46:07;5;4;
55473;PMS5003;65220;52.214;0.116;2023-06-24T14:48:32;5;5;
55473;PMS5003;65220;52.214;0.116;2023-06-24T14:50:57;5;5;
55473;PMS5003;65220;52.214;0.116;2023-06-24T14:53:23;2;2;
55473;PMS5003;65220;52.214;0.116;2023-06-24T14:55:48;5;5;
55473;PMS5003;65220;52.214;0.116;2023-06-24T14:58:13;4;4;
55473;PMS5003;65220;52.214;0.116;2023-06-24T15:00:38;5;4;
55473;PMS5003;65220;52.214;0.116;2023-06-24T15:03:03;5;5;
55473;PMS5003;65220;52.214;0.116;2023-06-24T15:05:28;3;3;
55473;PMS5003;65220;52.214;0.116;2023-06-24T15:07:53;4;4;
55473;PMS5003;65220;52.214;0.116;2023-06-24T15:10:19;4;4;
55473;PMS5003;65220;52.214;0.116;2023-06-24T15:12:44;6;5;
55473;PMS5003;65220;52.214;0.116;2023-06-24T15:15:09;5;5;
55473;PMS5003;65220;52.214;0.116;2023-06-24T15:17:34;3;3;
55473;PMS5003;65220;52.214;0.116;2023-06-24T15:19:59;6;5;
55473;PMS5003;65220;52.214;0.116;2023-06-24T15:22:24;4;4;
55473;PMS5003;65220;52.214;0.116;2023-06-24T15:24:49;5;4;
55473;PMS5003;65220;52.214;0.116;2023-06-24T15:27:15;2;2;
55473;PMS5003;65220;52.214;0.116;2023-06-24T15:29:40;8;5;
55473;PMS5003;65220;52.214;0.116;2023-06-24T15:32:05;4;4;
55473;PMS5003;65220;52.214;0.116;2023-06-24T15:34:30;3;3;
55473;PMS5003;65220;52.214;0.116;2023-06-24T15:36:55;5;3;
55473;PMS5003;65220;52.214;0.116;2023-06-24T15:39:20;4;4;
55473;PMS5003;65220;52.214;0.116;2023-06-24T15:41:46;4;3;
55473;PMS5003;65220;52.214;0.116;2023-06-24T15:44:12;3;3;
55473;PMS5003;65220;52.214;0.116;2023-06-24T15:46:36;4;4;
55473;PMS5003;65220;52.214;0.116;2023-06-24T15:49:01;4;4;
55473;PMS5003;65220;52.214;0.116;2023-06-24T15:51:26;6;6;
55473;PMS5003;65220;52.214;0.116;2023-06-24T15:53:51;3;3;
55473;PMS5003;65220;52.214;0.116;2023-06-24T15:56:16;3;3;
55473;PMS5003;65220;52.214;0.116;2023-06-24T15:58:41;4;3;
55473;PMS5003;65220;52.214;0.116;2023-06-24T16:01:07;6;3;
55473;PMS5003;65220;52.214;0.116;2023-06-24T16:03:32;4;4;
55473;PMS5003;65220;52.214;0.116;2023-06-24T16:05:57;4;4;
55473;PMS5003;65220;52.214;0.116;2023-06-24T16:08:22;3;3;
55473;PMS5003;65220;52.214;0.116;2023-06-24T16:10:47;5;5;
55473;PMS5003;65220;52.214;0.116;2023-06-24T16:13:12;5;5;
55473;PMS5003;65220;52.214;0.116;2023-06-24T16:15:38;3;3;
55473;PMS5003;65220;52.214;0.116;2023-06-24T16:18:03;5;4;
55473;PMS5003;65220;52.214;0.116;2023-06-24T16:20:28;4;3;
55473;PMS5003;65220;52.214;0.116;2023-06-24T16:22:53;4;4;
55473;PMS5003;65220;52.214;0.116;2023-06-24T16:25:19;3;3;
55473;PMS5003;65220;52.214;0.116;2023-06-24T16:27:44;5;5;
55473;PMS5003;65220;52.214;0.116;2023-06-24T16:30:09;5;5;
55473;PMS5003;65220;52.214;0.116;2023-06-24T16:32:34;3;3;
55473;PMS5003;65220;52.214;0.116;2023-06-24T16:34:59;5;3;
55473;PMS5003;65220;52.214;0.116;2023-06-24T16:37:24;3;2;
55473;PMS5003;65220;52.214;0.116;2023-06-24T16:39:50;6;4;
55473;PMS5003;65220;52.214;0.116;2023-06-24T16:42:16;4;4;
55473;PMS5003;65220;52.214;0.116;2023-06-24T16:44:41;5;4;
55473;PMS5003;65220;52.214;0.116;2023-06-24T16:47:06;5;5;
55473;PMS5003;65220;52.214;0.116;2023-06-24T16:49:31;4;3;
55473;PMS5003;65220;52.214;0.116;2023-06-24T16:51:56;3;3;
55473;PMS5003;65220;52.214;0.116;2023-06-24T16:54:21;4;4;
55473;PMS5003;65220;52.214;0.116;2023-06-24T16:56:46;6;5;
55473;PMS5003;65220;52.214;0.116;2023-06-24T16:59:12;3;3;
55473;PMS5003;65220;52.214;0.116;2023-06-24T17:01:37;5;4;
55473;PMS5003;65220;52.214;0.116;2023-06-24T17:04:02;3;3;
55473;PMS5003;65220;52.214;0.116;2023-06-24T17:06:27;5;5;
55473;PMS5003;65220;52.214;0.116;2023-06-24T17:08:53;4;4;
55473;PMS5003;65220;52.214;0.116;2023-06-24T17:11:18;5;5;
55473;PMS5003;65220;52.214;0.116;2023-06-24T17:13:43;2;2;
55473;PMS5003;65220;52.214;0.116;2023-06-24T17:16:08;7;5;
55473;PMS5003;65220;52.214;0.116;2023-06-24T17:18:33;12;11;
55473;PMS5003;65220;52.214;0.116;2023-06-24T17:20:59;266;244;
55473;PMS5003;65220;52.214;0.116;2023-06-24T17:23:25;106;101;
55473;PMS5003;65220;52.214;0.116;2023-06-24T17:25:50;132;126;
55473;PMS5003;65220;52.214;0.116;2023-06-24T17:28:15;146;136;
55473;PMS5003;65220;52.214;0.116;2023-06-24T17:30:41;96;92;
55473;PMS5003;65220;52.214;0.116;2023-06-24T17:33:06;75;72;
55473;PMS5003;65220;52.214;0.116;2023-06-24T17:35:32;48;46;
55473;PMS5003;65220;52.214;0.116;2023-06-24T17:37:57;51;46;
55473;PMS5003;65220;52.214;0.116;2023-06-24T17:40:23;57;56;
55473;PMS5003;65220;52.214;0.116;2023-06-24T17:42:49;59;57;
55473;PMS5003;65220;52.214;0.116;2023-06-24T17:45:14;55;55;
55473;PMS5003;65220;52.214;0.116;2023-06-24T17:47:40;29;28;
55473;PMS5003;65220;52.214;0.116;2023-06-24T17:50:05;32;30;
55473;PMS5003;65220;52.214;0.116;2023-06-24T17:52:31;17;17;
55473;PMS5003;65220;52.214;0.116;2023-06-24T17:54:56;12;12;
55473;PMS5003;65220;52.214;0.116;2023-06-24T17:57:21;15;15;
55473;PMS5003;65220;52.214;0.116;2023-06-24T17:59:47;32;32;
55473;PMS5003;65220;52.214;0.116;2023-06-24T18:02:12;29;28;
55473;PMS5003;65220;52.214;0.116;2023-06-24T18:04:38;21;20;
55473;PMS5003;65220;52.214;0.116;2023-06-24T18:07:03;24;22;
55473;PMS5003;65220;52.214;0.116;2023-06-24T18:09:29;24;22;
55473;PMS5003;65220;52.214;0.116;2023-06-24T18:11:54;24;21;
55473;PMS5003;65220;52.214;0.116;2023-06-24T18:14:19;20;16;
55473;PMS5003;65220;52.214;0.116;2023-06-24T18:16:47;20;19;
55473;PMS5003;65220;52.214;0.116;2023-06-24T18:19:11;290;273;
55473;PMS5003;65220;52.214;0.116;2023-06-24T18:21:36;113;105;
55473;PMS5003;65220;52.214;0.116;2023-06-24T18:24:01;120;110;
55473;PMS5003;65220;52.214;0.116;2023-06-24T18:26:26;80;74;
55473;PMS5003;65220;52.214;0.116;2023-06-24T18:28:52;83;80;
55473;PMS5003;65220;52.214;0.116;2023-06-24T18:31:18;62;58;
55473;PMS5003;65220;52.214;0.116;2023-06-24T18:33:43;65;61;
55473;PMS5003;65220;52.214;0.116;2023-06-24T18:36:08;64;55;
55473;PMS5003;65220;52.214;0.116;2023-06-24T18:38:34;43;41;
55473;PMS5003;65220;52.214;0.116;2023-06-24T18:40:59;43;42;
55473;PMS5003;65220;52.214;0.116;2023-06-24T18:43:24;40;38;
55473;PMS5003;65220;52.214;0.116;2023-06-24T18:45:49;33;33;
55473;PMS5003;65220;52.214;0.116;2023-06-24T18:48:15;29;29;
55473;PMS5003;65220;52.214;0.116;2023-06-24T18:50:40;25;24;
55473;PMS5003;65220;52.214;0.116;2023-06-24T18:53:06;24;23;
55473;PMS5003;65220;52.214;0.116;2023-06-24T18:55:31;16;16;
55473;PMS5003;65220;52.214;0.116;2023-06-24T18:57:56;14;14;
55473;PMS5003;65220;52.214;0.116;2023-06-24T19:00:22;13;12;
55473;PMS5003;65220;52.214;0.116;2023-06-24T19:02:48;11;11;
55473;PMS5003;65220;52.214;0.116;2023-06-24T19:05:13;10;10;
55473;PMS5003;65220;52.214;0.116;2023-06-24T19:07:38;11;11;
55473;PMS5003;65220;52.214;0.116;2023-06-24T19:10:04;9;9;
55473;PMS5003;65220;52.214;0.116;2023-06-24T19:12:29;9;9;
55473;PMS5003;65220;52.214;0.116;2023-06-24T19:14:54;13;10;
55473;PMS5003;65220;52.214;0.116;2023-06-24T19:17:19;6;6;
55473;PMS5003;65220;52.214;0.116;2023-06-24T19:19:45;8;8;
55473;PMS5003;65220;52.214;0.116;2023-06-24T19:22:10;9;8;
55473;PMS5003;65220;52.214;0.116;2023-06-24T19:24:35;6;6;
55473;PMS5003;65220;52.214;0.116;2023-06-24T19:27:01;5;5;